createdAt,value
2022-09-02T00:02:25.094Z,99972.63
2022-09-02T00:04:52.849Z,99974.31
2022-09-02T00:07:20.216Z,99966.38
2022-09-02T00:09:47.839Z,99958.25
2022-09-02T00:12:16.087Z,99956.37
2022-09-02T00:14:43.407Z,99951.72
2022-09-02T00:17:10.764Z,99947.16
2022-09-02T00:19:38.439Z,99953.94
2022-09-02T00:22:05.772Z,99956.63
2022-09-02T00:24:33.235Z,99953.06
2022-09-02T00:27:00.994Z,99947.37
2022-09-02T00:29:28.909Z,99951.34
2022-09-02T00:31:56.387Z,99950.59
2022-09-02T00:34:24.356Z,99940.91
2022-09-02T00:36:51.872Z,99937.81
2022-09-02T00:39:19.606Z,99941.22
2022-09-02T00:41:47.527Z,99940.53
2022-09-02T00:44:17.420Z,99929.62
2022-09-02T00:46:45.355Z,99939.00
2022-09-02T00:49:19.018Z,99936.44
2022-09-02T00:51:49.171Z,99939.59
2022-09-02T00:54:20.045Z,99926.25
2022-09-02T00:56:48.066Z,99934.13
2022-09-02T00:59:24.257Z,99935.84
2022-09-02T01:01:51.644Z,99938.78
2022-09-02T01:04:19.336Z,99929.09
2022-09-02T01:06:46.964Z,99926.13
2022-09-02T01:09:15.711Z,99926.13
2022-09-02T01:11:47.987Z,99933.37
2022-09-02T01:14:16.243Z,99932.00
2022-09-02T01:16:49.959Z,99928.28
2022-09-02T01:19:25.287Z,99931.44
2022-09-02T01:21:54.356Z,99928.41
2022-09-02T01:24:34.725Z,99928.47
2022-09-02T01:27:02.348Z,99934.56
2022-09-02T01:29:29.918Z,99932.22
2022-09-02T01:31:57.789Z,99927.13
2022-09-02T01:34:26.379Z,99923.00
2022-09-02T01:36:53.724Z,99933.28
2022-09-02T01:39:21.449Z,99930.06
2022-09-02T01:41:49.239Z,99918.84
2022-09-02T01:44:17.733Z,99934.44
2022-09-02T01:46:46.451Z,99926.94
2022-09-02T01:49:14.228Z,99924.66
2022-09-02T01:51:41.902Z,99922.56
2022-09-02T01:54:09.365Z,99924.47
2022-09-02T01:56:37.239Z,99928.97
2022-09-02T01:59:07.789Z,99922.41
2022-09-02T02:01:35.454Z,99915.44
2022-09-02T02:04:04.284Z,99923.06
2022-09-02T02:06:32.513Z,99913.12
2022-09-02T02:09:00.103Z,99915.38
2022-09-02T02:11:28.028Z,99916.97
2022-09-02T02:13:56.356Z,99918.44
2022-09-02T02:16:23.779Z,99913.03
2022-09-02T02:18:51.481Z,99912.78
2022-09-02T02:21:20.225Z,99912.50
2022-09-02T02:23:48.511Z,99907.53
2022-09-02T02:26:16.392Z,99914.94
2022-09-02T02:28:44.053Z,99910.88
2022-09-02T02:31:11.878Z,99910.37
2022-09-02T02:33:39.688Z,99910.75
2022-09-02T02:36:08.003Z,99913.81
2022-09-02T02:38:36.911Z,99909.50
2022-09-02T02:41:06.389Z,99908.78
2022-09-02T02:43:39.525Z,99913.28
2022-09-02T02:46:07.944Z,99914.59
2022-09-02T02:48:36.855Z,99902.63
2022-09-02T02:51:06.067Z,99910.69
2022-09-02T02:53:36.192Z,99906.84
2022-09-02T02:56:04.864Z,99914.78
2022-09-02T02:58:32.468Z,99916.59
2022-09-02T03:01:00.991Z,99905.91
2022-09-02T03:03:29.715Z,99906.56
2022-09-02T03:05:58.257Z,99902.78
2022-09-02T03:08:26.971Z,99903.56
2022-09-02T03:10:55.979Z,99900.81
2022-09-02T03:13:24.146Z,99901.25
2022-09-02T03:16:01.285Z,99898.09
2022-09-02T03:18:28.933Z,99897.03
2022-09-02T03:20:56.938Z,99897.97
2022-09-02T03:23:24.326Z,99899.56
2022-09-02T03:25:51.990Z,99897.72
2022-09-02T03:28:23.465Z,99892.44
2022-09-02T03:30:50.950Z,99901.22
2022-09-02T03:33:18.868Z,99895.44
2022-09-02T03:36:02.638Z,99895.88
2022-09-02T03:38:50.936Z,99898.56
2022-09-02T03:41:19.452Z,99902.50
2022-09-02T03:43:47.448Z,99902.28
2022-09-02T03:46:15.373Z,99897.91
2022-09-02T03:48:43.944Z,99896.66
2022-09-02T03:51:12.225Z,99894.00
2022-09-02T03:53:39.941Z,99899.31
2022-09-02T03:56:13.139Z,99895.69
2022-09-02T03:58:40.780Z,99896.66
2022-09-02T04:01:17.671Z,99899.16
2022-09-02T04:03:46.440Z,99896.81
2022-09-02T04:06:16.370Z,99895.75
2022-09-02T04:08:45.045Z,99892.53
2022-09-02T04:11:18.113Z,99902.66
2022-09-02T04:13:46.754Z,99900.97
2022-09-02T04:16:19.964Z,99904.50
2022-09-02T04:18:47.730Z,99903.00
2022-09-02T04:21:15.978Z,99902.28
2022-09-02T04:23:49.231Z,99910.19
2022-09-02T04:26:18.588Z,99902.75
2022-09-02T04:28:47.700Z,99902.37
2022-09-02T04:31:18.096Z,99906.16
2022-09-02T04:33:46.659Z,99909.50
2022-09-02T04:36:16.579Z,99909.25
2022-09-02T04:38:44.760Z,99903.31
2022-09-02T04:41:16.840Z,99915.41
2022-09-02T04:43:45.128Z,99913.06
2022-09-02T04:46:14.565Z,99915.13
2022-09-02T04:48:44.208Z,99921.19
2022-09-02T04:51:14.868Z,99914.97
2022-09-02T04:53:43.951Z,99921.56
2022-09-02T04:56:14.830Z,99912.25
2022-09-02T04:58:44.491Z,99911.91
2022-09-02T05:01:16.747Z,99920.41
2022-09-02T05:03:45.551Z,99921.28
2022-09-02T05:06:16.350Z,99927.88
2022-09-02T05:08:46.593Z,99919.78
2022-09-02T05:11:19.701Z,99926.03
2022-09-02T05:13:51.421Z,99923.31
2022-09-02T05:16:22.695Z,99925.91
2022-09-02T05:18:51.597Z,99921.81
2022-09-02T05:21:19.988Z,99927.53
2022-09-02T05:23:48.312Z,99929.84
2022-09-02T05:26:16.983Z,99926.47
2022-09-02T05:28:44.694Z,99930.03
2022-09-02T05:31:14.848Z,99927.66
2022-09-02T05:33:44.594Z,99928.56
2022-09-02T05:36:21.275Z,99931.47
2022-09-02T05:38:49.688Z,99923.06
2022-09-02T05:41:23.415Z,99930.91
2022-09-02T05:43:53.803Z,99919.88
2022-09-02T05:46:23.514Z,99920.47
2022-09-02T05:49:08.860Z,99921.94
2022-09-02T05:51:44.044Z,99926.09
2022-09-02T05:54:17.021Z,99924.69
2022-09-02T05:56:46.386Z,99921.62
2022-09-02T05:59:15.366Z,99928.66
2022-09-02T06:01:43.400Z,99920.19
2022-09-02T06:04:11.119Z,99918.53
2022-09-02T06:06:39.870Z,99922.59
2022-09-02T06:09:10.152Z,99925.03
2022-09-02T06:11:40.028Z,99923.75
2022-09-02T06:14:08.883Z,99931.84
2022-09-02T06:16:38.178Z,99933.00
2022-09-02T06:19:06.933Z,99931.44
2022-09-02T06:21:36.531Z,99930.56
2022-09-02T06:24:08.328Z,99926.16
2022-09-02T06:26:37.490Z,99932.91
2022-09-02T06:29:06.070Z,99936.41
2022-09-02T06:31:34.646Z,99936.12
2022-09-02T06:34:03.734Z,99939.06
2022-09-02T06:36:31.585Z,99938.28
2022-09-02T06:39:00.937Z,99943.22
2022-09-02T06:41:32.088Z,99934.06
2022-09-02T06:44:02.776Z,99940.22
2022-09-02T06:46:44.713Z,99943.72
2022-09-02T06:49:12.611Z,99937.06
2022-09-02T06:51:43.367Z,99948.78
2022-09-02T06:54:14.400Z,99942.81
2022-09-02T06:56:47.273Z,99940.50
2022-09-02T06:59:18.776Z,99935.19
2022-09-02T07:01:47.261Z,99938.69
2022-09-02T07:04:34.992Z,99934.03
2022-09-02T07:07:04.478Z,99933.19
2022-09-02T07:09:32.251Z,99940.00
2022-09-02T07:12:04.667Z,99936.78
2022-09-02T07:14:40.689Z,99938.19
2022-09-02T07:17:10.420Z,99931.78
2022-09-02T07:19:38.744Z,99930.53
2022-09-02T07:22:06.690Z,99933.78
2022-09-02T07:24:37.072Z,99924.44
2022-09-02T07:27:05.850Z,99933.69
2022-09-02T07:29:34.824Z,99930.34
2022-09-02T07:32:02.607Z,99937.03
2022-09-02T07:34:30.436Z,99935.88
2022-09-02T07:37:03.279Z,99930.03
2022-09-02T07:39:32.976Z,99937.38
2022-09-02T07:42:01.257Z,99939.16
2022-09-02T07:44:48.867Z,99937.38
2022-09-02T07:47:17.815Z,99934.44
2022-09-02T07:52:33.708Z,99933.59
2022-09-02T07:55:01.237Z,99929.19
2022-09-02T07:57:29.103Z,99928.28
2022-09-02T07:59:56.871Z,99927.25
2022-09-02T08:02:25.226Z,99931.69
2022-09-02T08:04:53.262Z,99935.44
2022-09-02T08:07:24.222Z,99933.66
2022-09-02T08:09:52.300Z,99936.62
2022-09-02T08:12:22.167Z,99943.31
2022-09-02T08:14:50.501Z,99938.66
2022-09-02T08:17:17.930Z,99936.00
2022-09-02T08:19:45.791Z,99938.03
2022-09-02T08:22:13.152Z,99929.50
2022-09-02T08:24:46.024Z,99932.56
2022-09-02T08:27:13.623Z,99932.22
2022-09-02T08:29:41.062Z,99935.66
2022-09-02T08:32:08.470Z,99934.31
2022-09-02T08:34:36.361Z,99930.88
2022-09-02T08:37:03.775Z,99925.75
2022-09-02T08:39:31.165Z,99925.34
2022-09-02T08:42:08.581Z,99921.00
2022-09-02T08:44:37.741Z,99918.47
2022-09-02T08:47:06.840Z,99914.50
2022-09-02T08:49:44.652Z,99919.50
2022-09-02T08:52:21.081Z,99920.38
2022-09-02T08:54:57.157Z,99921.59
2022-09-02T08:57:27.031Z,99919.25
2022-09-02T08:59:58.415Z,99926.97
2022-09-02T09:03:15.338Z,99926.28
2022-09-02T09:05:53.262Z,99919.94
2022-09-02T09:08:43.701Z,99919.34
2022-09-02T09:11:34.500Z,99924.09
2022-09-02T09:14:42.474Z,99921.19
2022-09-02T09:17:53.274Z,99912.63
2022-09-02T09:20:25.283Z,99911.13
2022-09-02T09:22:58.894Z,99918.63
2022-09-02T09:25:31.509Z,99913.97
2022-09-02T09:28:00.164Z,99917.59
2022-09-02T09:30:28.614Z,99915.34
2022-09-02T09:32:57.564Z,99907.47
2022-09-02T09:35:24.933Z,99914.03
2022-09-02T09:37:54.074Z,99905.38
2022-09-02T09:40:21.494Z,99900.53
2022-09-02T09:43:13.231Z,99900.34
2022-09-02T09:45:46.380Z,99905.84
2022-09-02T09:48:18.148Z,99896.03
2022-09-02T09:50:46.445Z,99890.38
2022-09-02T09:53:22.918Z,99896.00
2022-09-02T09:56:06.856Z,99894.87
2022-09-02T09:58:45.907Z,99898.69
2022-09-02T10:01:25.952Z,99880.28
2022-09-02T10:03:58.512Z,99889.44
2022-09-02T10:06:32.176Z,99891.53
2022-09-02T10:09:05.808Z,99886.47
2022-09-02T10:11:35.772Z,99888.66
2022-09-02T10:14:06.173Z,99886.19
2022-09-02T10:16:52.452Z,99890.69
2022-09-02T10:19:34.331Z,99889.44
2022-09-02T10:22:38.499Z,99886.31
2022-09-02T10:25:25.536Z,99891.94
2022-09-02T10:28:04.997Z,99890.53
2022-09-02T10:30:39.572Z,99888.19
2022-09-02T10:33:25.099Z,99887.47
2022-09-02T10:36:22.035Z,99890.88
2022-09-02T10:38:52.111Z,99893.34
2022-09-02T10:44:30.276Z,99893.06
2022-09-02T10:47:04.415Z,99890.19
2022-09-02T10:49:51.271Z,99892.38
2022-09-02T10:52:43.083Z,99884.50
2022-09-02T10:55:25.065Z,99886.97
2022-09-02T10:57:59.420Z,99896.19
2022-09-02T11:00:29.211Z,99890.78
2022-09-02T11:03:02.345Z,99887.47
2022-09-02T11:05:39.846Z,99893.66
2022-09-02T11:08:11.959Z,99885.66
2022-09-02T11:11:11.373Z,99896.13
2022-09-02T11:13:56.839Z,99886.63
2022-09-02T11:16:34.475Z,99890.41
2022-09-02T11:19:11.119Z,99883.00
2022-09-02T11:22:09.248Z,99883.00
2022-09-02T11:25:00.603Z,99875.72
2022-09-02T11:27:54.810Z,99867.59
2022-09-02T11:30:26.835Z,99871.78
2022-09-02T11:33:19.232Z,99866.19
2022-09-02T11:35:46.921Z,99860.62
2022-09-02T11:38:36.133Z,99857.06
2022-09-02T11:41:44.999Z,99864.13
2022-09-02T11:44:53.157Z,99861.81
2022-09-02T11:47:26.952Z,99857.22
2022-09-02T11:50:19.411Z,99853.81
2022-09-02T11:53:05.733Z,99850.94
2022-09-02T11:55:38.681Z,99847.78
2022-09-02T11:58:06.319Z,99842.44
2022-09-02T12:00:36.558Z,99845.69
2022-09-02T12:03:11.835Z,99841.87
2022-09-02T12:05:46.211Z,99844.53
2022-09-02T12:08:35.655Z,99842.50
2022-09-02T12:11:06.723Z,99838.16
2022-09-02T12:13:37.287Z,99842.88
2022-09-02T12:16:21.128Z,99838.88
2022-09-02T12:18:54.606Z,99841.56
2022-09-02T12:21:23.912Z,99840.06
2022-09-02T12:23:52.490Z,99832.56
2022-09-02T12:26:25.122Z,99837.84
2022-09-02T12:28:54.941Z,99839.75
2022-09-02T12:31:45.599Z,99834.59
2022-09-02T12:34:25.481Z,99829.59
2022-09-02T12:36:54.702Z,99828.63
2022-09-02T12:39:27.976Z,99827.88
2022-09-02T12:42:01.287Z,99822.53
2022-09-02T12:45:01.082Z,99824.38
2022-09-02T12:47:49.440Z,99823.63
2022-09-02T12:50:24.010Z,99819.63
2022-09-02T12:52:52.537Z,99823.75
2022-09-02T12:55:29.440Z,99814.78
2022-09-02T12:58:11.411Z,99819.25
2022-09-02T13:01:10.770Z,99816.06
2022-09-02T13:03:56.852Z,99816.13
2022-09-02T13:06:58.346Z,99818.97
2022-09-02T13:09:48.416Z,99810.03
2022-09-02T13:12:43.994Z,99810.41
2022-09-02T13:15:52.042Z,99812.72
2022-09-02T13:18:44.687Z,99804.38
2022-09-02T13:21:23.771Z,99805.22
2022-09-02T13:24:18.947Z,99805.47
2022-09-02T13:27:15.981Z,99796.88
2022-09-02T13:30:03.702Z,99801.06
2022-09-02T13:32:32.137Z,99799.28
2022-09-02T13:35:03.614Z,99805.16
2022-09-02T13:37:32.592Z,99797.72
2022-09-02T13:40:04.172Z,99800.59
2022-09-02T13:43:03.274Z,99801.94
2022-09-02T13:45:34.785Z,99801.13
2022-09-02T13:48:29.480Z,99789.50
2022-09-02T13:51:00.104Z,99790.72
2022-09-02T13:53:58.855Z,99791.28
2022-09-02T13:56:28.467Z,99782.53
2022-09-02T13:58:58.935Z,99790.03
2022-09-02T14:01:35.211Z,99789.56
2022-09-02T14:04:10.981Z,99788.63
2022-09-02T14:06:41.057Z,99795.22
2022-09-02T14:09:11.888Z,99783.88
2022-09-02T14:11:42.283Z,99788.44
2022-09-02T14:14:18.717Z,99789.13
2022-09-02T14:16:46.038Z,99790.00
2022-09-02T14:19:16.546Z,99799.59
2022-09-02T14:21:53.465Z,99789.34
2022-09-02T14:24:24.616Z,99791.81
2022-09-02T14:26:53.740Z,99787.53
2022-09-02T14:29:21.951Z,99793.59
2022-09-02T14:32:09.792Z,99793.13
2022-09-02T14:34:39.805Z,99798.81
2022-09-02T14:37:32.605Z,99801.69
2022-09-02T14:40:00.115Z,99801.31
2022-09-02T14:42:29.396Z,99797.13
2022-09-02T14:44:59.403Z,99799.78
2022-09-02T14:47:28.238Z,99796.56
2022-09-02T14:49:56.107Z,99798.94
2022-09-02T14:52:28.290Z,99802.34
2022-09-02T14:54:57.228Z,99801.50
2022-09-02T14:57:28.523Z,99805.50
2022-09-02T15:00:06.128Z,99808.25
2022-09-02T15:02:34.717Z,99804.53
2022-09-02T15:05:07.772Z,99805.03
2022-09-02T15:07:35.119Z,99800.94
2022-09-02T15:10:02.754Z,99814.53
2022-09-02T15:12:32.562Z,99809.69
2022-09-02T15:15:00.409Z,99809.50
2022-09-02T15:17:29.474Z,99805.50
2022-09-02T15:19:57.094Z,99806.09
2022-09-02T15:22:25.187Z,99808.75
2022-09-02T15:24:52.945Z,99804.84
2022-09-02T15:27:21.721Z,99807.59
2022-09-02T15:29:49.715Z,99802.66
2022-09-02T15:32:26.811Z,99800.75
2022-09-02T15:34:54.233Z,99805.59
2022-09-02T15:37:21.961Z,99805.13
2022-09-02T15:39:50.214Z,99807.31
2022-09-02T15:42:18.293Z,99813.31
2022-09-02T15:44:46.268Z,99817.87
2022-09-02T15:47:13.671Z,99816.44
2022-09-02T15:49:40.984Z,99820.16
2022-09-02T15:52:08.811Z,99824.91
2022-09-02T15:54:36.374Z,99827.38
2022-09-02T15:57:03.778Z,99826.28
2022-09-02T15:59:31.376Z,99836.62
2022-09-02T16:01:59.340Z,99831.84
2022-09-02T16:04:30.033Z,99842.69
2022-09-02T16:06:57.601Z,99845.72
2022-09-02T16:09:25.142Z,99846.34
2022-09-02T16:11:54.113Z,99848.75
2022-09-02T16:14:23.375Z,99848.06
2022-09-02T16:16:54.708Z,99848.78
2022-09-02T16:19:23.674Z,99856.31
2022-09-02T16:21:51.658Z,99855.63
2022-09-02T16:24:21.382Z,99853.31
2022-09-02T16:26:49.536Z,99858.88
2022-09-02T16:29:17.700Z,99852.59
2022-09-02T16:32:01.772Z,99861.81
2022-09-02T16:34:35.148Z,99856.66
2022-09-02T16:37:02.530Z,99861.53
2022-09-02T16:39:29.966Z,99861.97
2022-09-02T16:41:58.197Z,99867.94
2022-09-02T16:44:26.057Z,99868.91
2022-09-02T16:46:53.658Z,99867.62
2022-09-02T16:49:22.052Z,99870.38
2022-09-02T16:51:57.820Z,99869.06
2022-09-02T16:54:31.369Z,99875.91
2022-09-02T16:57:00.752Z,99874.41
2022-09-02T16:59:28.669Z,99875.22
2022-09-02T17:01:56.058Z,99877.97
2022-09-02T17:04:23.491Z,99881.19
2022-09-02T17:06:51.083Z,99889.22
2022-09-02T17:09:18.467Z,99891.97
2022-09-02T17:11:45.826Z,99886.03
2022-09-02T17:14:16.656Z,99886.22
2022-09-02T17:16:49.515Z,99885.00
2022-09-02T17:19:22.398Z,99884.81
2022-09-02T17:21:51.851Z,99880.22
2022-09-02T17:24:21.626Z,99885.59
2022-09-02T17:26:50.649Z,99886.78
2022-09-02T17:32:10.355Z,99885.00
2022-09-02T17:34:37.638Z,99885.38
2022-09-02T17:37:05.666Z,99892.53
2022-09-02T17:39:36.301Z,99889.69
2022-09-02T17:42:05.233Z,99879.81
2022-09-02T17:44:38.723Z,99890.03
2022-09-02T17:47:07.432Z,99887.88
2022-09-02T17:49:39.123Z,99885.00
2022-09-02T17:52:07.958Z,99895.75
2022-09-02T17:54:36.776Z,99890.03
2022-09-02T17:57:43.185Z,99893.31
2022-09-02T18:00:12.282Z,99895.63
2022-09-02T18:02:58.862Z,99904.66
2022-09-02T18:05:46.395Z,99903.25
2022-09-02T18:08:47.560Z,99900.91
2022-09-02T18:11:15.038Z,99905.91
2022-09-02T18:14:05.984Z,99907.03
2022-09-02T18:16:38.185Z,99910.69
2022-09-02T18:19:48.933Z,99896.94
2022-09-02T18:22:35.832Z,99911.44
2022-09-02T18:25:27.359Z,99908.87
2022-09-02T18:28:17.327Z,99913.75
2022-09-02T18:30:52.587Z,99918.59
2022-09-02T18:33:31.061Z,99916.69
2022-09-02T18:36:19.003Z,99924.34
2022-09-02T18:38:53.771Z,99922.59
2022-09-02T18:41:42.009Z,99921.69
2022-09-02T18:44:28.503Z,99924.91
2022-09-02T18:47:03.311Z,99928.31
2022-09-02T18:49:33.655Z,99931.97
2022-09-02T18:52:06.350Z,99929.16
2022-09-02T18:54:44.192Z,99935.88
2022-09-02T18:57:12.012Z,99934.75
2022-09-02T18:59:55.189Z,99934.00
2022-09-02T19:02:25.015Z,99933.00
2022-09-02T19:04:52.439Z,99928.38
2022-09-02T19:07:39.164Z,99928.78
2022-09-02T19:10:08.785Z,99936.22
2022-09-02T19:12:36.679Z,99943.31
2022-09-02T19:15:09.407Z,99939.69
2022-09-02T19:17:38.539Z,99947.37
2022-09-02T19:20:07.587Z,99941.50
2022-09-02T19:22:38.759Z,99945.06
2022-09-02T19:25:10.525Z,99941.63
2022-09-02T19:27:39.950Z,99945.47
2022-09-02T19:30:12.523Z,99951.22
2022-09-02T19:32:43.790Z,99942.03
2022-09-02T19:35:16.563Z,99949.06
2022-09-02T19:37:51.176Z,99951.16
2022-09-02T19:40:22.316Z,99949.38
2022-09-02T19:42:51.986Z,99941.50
2022-09-02T19:45:21.542Z,99945.13
2022-09-02T19:48:08.824Z,99952.28
2022-09-02T19:50:42.767Z,99941.38
2022-09-02T19:53:15.948Z,99951.31
2022-09-02T19:55:43.595Z,99948.84
2022-09-02T19:58:11.143Z,99937.44
2022-09-02T20:00:42.236Z,99944.16
2022-09-02T20:03:11.346Z,99951.50
2022-09-02T20:05:40.387Z,99945.44
2022-09-02T20:08:09.129Z,99947.47
2022-09-02T20:10:38.313Z,99941.75
2022-09-02T20:13:06.818Z,99945.31
2022-09-02T20:15:38.115Z,99942.22
2022-09-02T20:18:10.184Z,99947.37
2022-09-02T20:20:37.898Z,99949.22
2022-09-02T20:23:17.648Z,99957.63
2022-09-02T20:26:04.511Z,99962.00
2022-09-02T20:29:09.567Z,99962.41
2022-09-02T20:32:14.945Z,99964.06
2022-09-02T20:34:52.209Z,99956.69
2022-09-02T20:37:36.897Z,99960.38
2022-09-02T20:40:27.087Z,99957.09
2022-09-02T20:43:06.375Z,99951.00
2022-09-02T20:45:39.141Z,99965.59
2022-09-02T20:48:29.999Z,99959.41
2022-09-02T20:51:08.252Z,99955.31
2022-09-02T20:54:00.265Z,99960.59
2022-09-02T20:56:29.992Z,99971.91
2022-09-02T20:59:10.494Z,99966.97
2022-09-02T21:01:47.386Z,99968.91
2022-09-02T21:04:24.059Z,99968.16
2022-09-02T21:07:01.519Z,99972.69
2022-09-02T21:09:39.840Z,99967.72
2022-09-02T21:12:20.515Z,99966.84
2022-09-02T21:14:52.936Z,99970.31
2022-09-02T21:17:21.546Z,99963.09
2022-09-02T21:19:55.583Z,99965.41
2022-09-02T21:22:32.423Z,99961.38
2022-09-02T21:25:22.750Z,99964.25
2022-09-02T21:27:58.766Z,99972.28
2022-09-02T21:30:28.182Z,99969.63
2022-09-02T21:33:03.369Z,99971.03
2022-09-02T21:35:50.659Z,99972.84
2022-09-02T21:38:38.482Z,99974.88
2022-09-02T21:41:27.107Z,99976.84
2022-09-02T21:44:19.430Z,99977.53
2022-09-02T21:47:05.941Z,99974.12
2022-09-02T21:49:55.124Z,99970.87
2022-09-02T21:52:52.178Z,99967.50
2022-09-02T21:55:35.458Z,99972.56
2022-09-02T21:58:15.184Z,99978.50
2022-09-02T22:00:47.239Z,99979.38
2022-09-02T22:03:24.625Z,99974.75
2022-09-02T22:05:57.109Z,99978.50
2022-09-02T22:08:25.579Z,99983.94
2022-09-02T22:11:15.051Z,99974.06
2022-09-02T22:13:42.688Z,99973.25
2022-09-02T22:16:13.098Z,99967.25
2022-09-02T22:18:49.619Z,99979.00
2022-09-02T22:21:48.626Z,99983.28
2022-09-02T22:24:22.247Z,99977.34
2022-09-02T22:27:06.288Z,99978.03
2022-09-02T22:29:44.022Z,99974.34
2022-09-02T22:32:14.461Z,99978.91
2022-09-02T22:34:49.494Z,99976.03
2022-09-02T22:37:22.279Z,99981.28
2022-09-02T22:39:56.080Z,99979.56
2022-09-02T22:42:36.707Z,99969.44
2022-09-02T22:45:27.631Z,99966.59
2022-09-02T22:48:32.325Z,99962.13
2022-09-02T22:51:23.511Z,99963.00
2022-09-02T22:53:51.189Z,99964.09
2022-09-02T22:56:52.788Z,99972.06
2022-09-02T22:59:39.035Z,99964.03
2022-09-02T23:02:22.283Z,99965.84
2022-09-02T23:04:58.835Z,99954.66
2022-09-02T23:07:26.166Z,99953.06
2022-09-02T23:09:58.995Z,99953.00
2022-09-02T23:12:42.628Z,99953.78
2022-09-02T23:15:23.590Z,99950.66
2022-09-02T23:18:10.428Z,99953.84
2022-09-02T23:20:48.300Z,99942.84
2022-09-02T23:23:38.785Z,99949.06
2022-09-02T23:26:22.959Z,99945.75
2022-09-02T23:29:01.514Z,99945.75
2022-09-02T23:31:32.329Z,99946.00
2022-09-02T23:34:36.139Z,99939.66
2022-09-02T23:37:34.935Z,99943.97
2022-09-02T23:40:19.215Z,99937.88
2022-09-02T23:42:47.367Z,99939.22
2022-09-02T23:45:26.385Z,99940.78
2022-09-02T23:48:04.591Z,99944.28
2022-09-02T23:50:35.837Z,99939.28
2022-09-02T23:53:12.764Z,99933.13
2022-09-02T23:55:49.300Z,99939.19
2022-09-02T23:58:23.742Z,99940.63
